createdAt,value
2023-05-05T04:58:15.967Z,1004.30
2023-05-05T04:59:15.930Z,1004.23
2023-05-05T05:00:15.947Z,1004.26
2023-05-05T05:01:15.934Z,1004.28
2023-05-05T05:02:15.936Z,1004.28
2023-05-05T05:03:15.952Z,1004.26
2023-05-05T05:04:15.855Z,1004.27
2023-05-05T05:05:15.864Z,1004.22
2023-05-05T05:06:15.854Z,1004.22
2023-05-05T05:07:15.814Z,1004.24
2023-05-05T06:13:04.908Z,1004.21
2023-05-05T06:14:04.888Z,1004.23
2023-05-05T06:15:04.869Z,1004.23
2023-05-05T06:16:04.879Z,1004.24
2023-05-05T06:17:04.842Z,1004.23
2023-05-05T06:18:04.832Z,1004.25
2023-05-05T06:19:04.835Z,1004.26
2023-05-05T06:20:04.794Z,1004.19
2023-05-05T06:21:04.793Z,1004.22
2023-05-05T06:22:04.846Z,1004.14
2023-05-05T06:35:46.546Z,1004.23
2023-05-05T06:36:46.544Z,1004.24
2023-05-05T06:37:48.274Z,1004.22
2023-05-05T06:38:47.233Z,1004.13
2023-05-05T06:39:46.474Z,1004.20
2023-05-05T07:18:33.237Z,1003.99
2023-05-05T07:19:33.577Z,1003.98
2023-05-05T07:20:33.194Z,1004.03
2023-05-05T07:21:33.214Z,1003.99
2023-05-05T07:22:34.893Z,1003.97
2023-05-05T07:23:33.153Z,1004.02
2023-05-05T07:24:33.182Z,1004.01
2023-05-05T07:25:33.120Z,1004.00
2023-05-05T07:26:33.196Z,1004.06
2023-05-05T07:27:33.115Z,1004.02
2023-05-05T08:50:45.757Z,1003.85
2023-05-05T08:51:46.479Z,1003.85
2023-05-05T08:52:45.897Z,1003.88
2023-05-05T08:53:45.709Z,1003.92
2023-05-05T08:54:45.708Z,1003.88
2023-05-05T08:55:45.734Z,1003.89
2023-05-05T08:56:45.664Z,1003.85
2023-05-05T08:57:45.662Z,1003.88
2023-05-05T08:58:45.667Z,1003.85
2023-05-05T08:59:45.651Z,1003.87
2023-05-05T09:01:45.130Z,1003.80
2023-05-05T09:02:45.141Z,1003.78
2023-05-05T09:03:45.105Z,1003.80
2023-05-05T09:04:45.113Z,1003.84
2023-05-05T09:05:45.087Z,1003.84
2023-05-05T09:06:45.049Z,1003.84
2023-05-05T09:07:45.019Z,1003.84
2023-05-05T09:08:45.020Z,1003.86
2023-05-05T09:09:45.022Z,1003.85
2023-05-05T09:10:45.000Z,1003.81
2023-05-05T09:56:40.944Z,1003.56
2023-05-05T09:57:40.890Z,1003.53
2023-05-05T09:58:40.963Z,1003.56
2023-05-05T09:59:40.876Z,1003.52
2023-05-05T10:00:43.602Z,1003.53
2023-05-05T10:01:40.918Z,1003.54
2023-05-05T10:02:40.860Z,1003.55
2023-05-05T10:03:40.838Z,1003.54
2023-05-05T10:04:40.878Z,1003.52
2023-05-05T10:05:40.811Z,1003.50
2023-05-05T10:07:10.482Z,1003.52
2023-05-05T10:08:10.475Z,1003.48
2023-05-05T10:09:10.473Z,1003.53
2023-05-05T10:10:10.668Z,1003.43
2023-05-05T10:11:10.459Z,1003.52
2023-05-05T10:12:10.427Z,1003.48
2023-05-05T10:13:10.436Z,1003.45
2023-05-05T10:14:10.422Z,1003.46
2023-05-05T10:15:10.387Z,1003.41
2023-05-05T10:16:10.445Z,1003.35
2023-05-05T10:35:37.116Z,1003.16
2023-05-05T10:36:37.126Z,1003.15
2023-05-05T10:37:37.121Z,1003.12
2023-05-05T10:38:37.085Z,1003.12
2023-05-05T10:39:37.076Z,1003.08
2023-05-05T10:40:37.060Z,1003.15
2023-05-05T10:41:37.063Z,1003.03
2023-05-05T10:42:37.064Z,1003.07
2023-05-05T10:43:37.036Z,1003.06
2023-05-05T10:44:37.052Z,1003.01
2023-05-05T11:11:22.198Z,1002.77
2023-05-05T11:12:21.930Z,1002.76
2023-05-05T11:13:21.973Z,1002.83
2023-05-05T11:14:21.918Z,1002.84
2023-05-05T11:15:21.885Z,1002.84
2023-05-05T11:16:21.870Z,1002.87
2023-05-05T11:17:21.841Z,1002.85
2023-05-05T11:18:21.914Z,1002.84
2023-05-05T11:19:21.849Z,1002.83
2023-05-05T11:20:21.840Z,1002.80
2023-05-05T12:46:47.933Z,1002.15
2023-05-05T12:47:47.924Z,1002.14
2023-05-05T12:48:48.530Z,1002.10
2023-05-05T12:49:47.908Z,1002.13
2023-05-05T12:50:47.872Z,1002.13
2023-05-05T12:51:47.853Z,1002.12
2023-05-05T12:52:47.837Z,1002.15
2023-05-05T12:53:47.822Z,1002.10
2023-05-05T12:54:47.839Z,1002.11
2023-05-05T12:55:47.816Z,1002.02
2023-05-05T13:07:54.130Z,1001.98
2023-05-05T13:08:54.108Z,1001.90
2023-05-05T13:09:54.093Z,1001.90
2023-05-05T13:10:54.088Z,1001.86
2023-05-05T13:11:54.056Z,1001.89
2023-05-05T13:12:54.167Z,1001.88
2023-05-05T13:13:54.034Z,1001.85
2023-05-05T13:14:54.073Z,1001.89
2023-05-05T13:33:21.496Z,1001.73
2023-05-05T13:34:21.480Z,1001.72
2023-05-05T13:35:21.484Z,1001.68
2023-05-05T13:36:21.468Z,1001.67
2023-05-05T13:37:21.457Z,1001.74
2023-05-05T13:38:21.430Z,1001.69
2023-05-05T13:39:21.482Z,1001.67
2023-05-05T13:40:22.303Z,1001.72
2023-05-05T13:41:21.404Z,1001.66
2023-05-05T13:42:21.392Z,1001.59
2023-05-05T14:33:27.633Z,1001.04
2023-05-05T14:34:27.607Z,1001.02
2023-05-05T14:35:27.626Z,1000.97
2023-05-05T14:36:27.628Z,1001.01
2023-05-05T14:37:27.568Z,1000.97
